createdAt,value
2022-09-06T00:01:52.417Z,22.10
2022-09-06T00:05:56.546Z,22.00
2022-09-06T00:09:59.542Z,22.00
2022-09-06T00:14:02.338Z,21.90
2022-09-06T00:18:06.824Z,21.90
2022-09-06T00:22:11.007Z,21.80
2022-09-06T00:26:14.031Z,21.80
2022-09-06T00:30:16.962Z,21.80
2022-09-06T00:34:19.788Z,21.70
2022-09-06T00:38:23.948Z,21.70
2022-09-06T00:42:26.776Z,21.60
2022-09-06T00:46:31.188Z,21.60
2022-09-06T00:50:34.067Z,21.50
2022-09-06T00:54:38.906Z,21.50
2022-09-06T00:58:41.914Z,21.50
2022-09-06T01:02:44.897Z,21.40
2022-09-06T01:06:51.114Z,21.50
2022-09-06T01:11:06.389Z,21.40
2022-09-06T01:15:15.388Z,21.40
2022-09-06T01:19:29.694Z,21.40
2022-09-06T01:23:52.810Z,21.30
2022-09-06T01:28:17.401Z,21.30
2022-09-06T01:32:24.562Z,21.30
2022-09-06T01:36:30.036Z,21.30
2022-09-06T01:40:36.429Z,21.30
2022-09-06T01:44:42.060Z,21.20
2022-09-06T01:48:51.898Z,21.20
2022-09-06T01:52:58.512Z,21.20
2022-09-06T01:57:06.770Z,21.20
2022-09-06T02:01:13.522Z,21.20
2022-09-06T02:05:21.615Z,21.10
2022-09-06T02:09:26.752Z,21.20
2022-09-06T02:13:31.606Z,21.10
2022-09-06T02:17:36.508Z,21.10
2022-09-06T02:21:42.538Z,21.10
2022-09-06T02:25:47.604Z,21.00
2022-09-06T02:29:50.418Z,21.00
2022-09-06T02:33:53.260Z,21.00
2022-09-06T02:37:57.453Z,21.00
2022-09-06T02:42:01.160Z,21.00
2022-09-06T02:46:04.070Z,20.90
2022-09-06T02:50:08.232Z,20.90
2022-09-06T02:54:12.569Z,20.90
2022-09-06T02:58:16.111Z,20.90
2022-09-06T03:02:19.038Z,20.90
2022-09-06T03:06:21.870Z,20.90
2022-09-06T03:10:26.340Z,20.80
2022-09-06T03:14:29.148Z,20.80
2022-09-06T03:18:31.991Z,20.80
2022-09-06T03:22:34.831Z,20.80
2022-09-06T03:26:39.001Z,20.70
2022-09-06T03:30:41.833Z,20.70
2022-09-06T03:34:44.798Z,20.70
2022-09-06T03:38:47.704Z,20.70
2022-09-06T03:42:51.852Z,20.60
2022-09-06T03:46:54.778Z,20.60
2022-09-06T03:50:58.408Z,20.60
2022-09-06T03:55:01.239Z,20.50
2022-09-06T03:59:05.452Z,20.50
2022-09-06T04:03:08.744Z,20.50
2022-09-06T04:07:11.685Z,20.40
2022-09-06T04:11:14.460Z,20.40
2022-09-06T04:15:18.599Z,20.40
2022-09-06T04:19:21.381Z,20.30
2022-09-06T04:23:25.524Z,20.30
2022-09-06T04:27:28.324Z,20.30
2022-09-06T04:31:32.554Z,20.30
2022-09-06T04:35:36.227Z,20.20
2022-09-06T04:39:39.173Z,20.20
2022-09-06T04:43:42.234Z,20.20
2022-09-06T04:47:46.512Z,20.10
2022-09-06T04:51:49.332Z,20.10
2022-09-06T04:55:52.138Z,20.10
2022-09-06T04:59:54.945Z,20.10
2022-09-06T05:03:59.113Z,20.00
2022-09-06T05:08:01.909Z,20.00
2022-09-06T05:12:04.997Z,19.90
2022-09-06T05:16:08.598Z,19.90
2022-09-06T05:20:13.568Z,19.90
2022-09-06T05:24:16.396Z,19.90
2022-09-06T05:28:19.707Z,19.90
2022-09-06T05:32:22.523Z,19.80
2022-09-06T05:36:26.800Z,19.70
2022-09-06T05:40:29.690Z,19.70
2022-09-06T05:44:32.509Z,19.70
2022-09-06T05:48:37.231Z,19.70
2022-09-06T05:52:42.072Z,19.70
2022-09-06T05:56:44.908Z,19.70
2022-09-06T06:00:48.043Z,19.70
2022-09-06T06:04:52.049Z,19.60
2022-09-06T06:08:56.889Z,19.60
2022-09-06T06:12:59.995Z,19.60
2022-09-06T06:17:03.229Z,19.60
2022-09-06T06:21:09.999Z,19.60
2022-09-06T06:25:14.164Z,19.50
2022-09-06T06:29:17.020Z,19.50
2022-09-06T06:33:19.809Z,19.50
2022-09-06T06:37:23.389Z,19.40
2022-09-06T06:41:28.431Z,19.30
2022-09-06T06:45:31.638Z,19.30
2022-09-06T06:49:34.536Z,19.20
2022-09-06T06:53:37.336Z,19.10
2022-09-06T06:57:41.747Z,19.10
2022-09-06T07:01:44.805Z,19.10
2022-09-06T07:14:35.520Z,19.40
2022-09-06T07:18:41.954Z,19.50
2022-09-06T07:22:44.803Z,19.50
2022-09-06T07:35:35.109Z,19.70
2022-09-06T07:39:39.083Z,19.70
2022-09-06T07:43:41.885Z,19.70
2022-09-06T07:48:01.356Z,19.60
2022-09-06T07:56:27.030Z,19.60
2022-09-06T08:00:29.880Z,19.60
2022-09-06T08:04:34.078Z,19.60
2022-09-06T08:12:59.778Z,19.60
2022-09-06T08:17:02.649Z,19.60
2022-09-06T08:21:12.617Z,19.70
2022-09-06T08:25:15.909Z,19.70
2022-09-06T08:29:19.861Z,19.70
2022-09-06T08:33:25.522Z,19.70
2022-09-06T08:37:29.831Z,19.70
2022-09-06T08:41:34.557Z,19.80
2022-09-06T08:45:37.566Z,19.90
2022-09-06T08:49:42.843Z,20.00
2022-09-06T08:53:47.526Z,20.10
2022-09-06T08:57:55.652Z,20.30
2022-09-06T09:02:02.412Z,20.30
2022-09-06T09:06:06.419Z,20.30
2022-09-06T09:10:12.960Z,20.30
2022-09-06T09:14:17.220Z,20.30
2022-09-06T09:18:23.095Z,20.30
2022-09-06T09:22:26.352Z,20.20
2022-09-06T09:26:32.508Z,20.20
2022-09-06T09:30:47.845Z,20.10
2022-09-06T09:34:51.754Z,20.10
2022-09-06T09:38:57.027Z,20.10
2022-09-06T09:43:12.123Z,20.10
2022-09-06T09:47:24.833Z,20.10
2022-09-06T09:51:28.277Z,20.10
2022-09-06T09:55:31.087Z,20.20
2022-09-06T09:59:39.328Z,20.40
2022-09-06T10:08:05.036Z,20.80
2022-09-06T10:12:08.078Z,21.20
2022-09-06T10:16:12.304Z,21.50
2022-09-06T10:20:15.167Z,21.80
2022-09-06T10:28:31.244Z,22.40
2022-09-06T10:32:41.428Z,22.80
2022-09-06T10:36:47.551Z,23.20
2022-09-06T10:41:00.967Z,23.60
2022-09-06T10:45:16.579Z,24.00
2022-09-06T10:49:21.311Z,24.40
2022-09-06T10:53:32.167Z,24.90
2022-09-06T11:02:04.046Z,25.70
2022-09-06T11:06:09.362Z,25.70
2022-09-06T11:10:16.090Z,26.00
2022-09-06T11:14:20.015Z,26.30
2022-09-06T11:18:26.215Z,26.60
2022-09-06T11:22:37.908Z,26.90
2022-09-06T11:26:44.382Z,27.10
2022-09-06T11:30:48.528Z,27.30
2022-09-06T11:34:54.383Z,27.60
2022-09-06T11:38:59.458Z,27.80
2022-09-06T11:43:14.835Z,28.00
2022-09-06T11:47:32.521Z,28.20
2022-09-06T11:51:36.620Z,28.40
2022-09-06T11:55:41.857Z,28.50
2022-09-06T11:59:50.793Z,28.70
2022-09-06T12:08:35.410Z,28.90
2022-09-06T12:12:43.384Z,29.00
2022-09-06T12:17:05.362Z,29.10
2022-09-06T12:21:08.208Z,29.30
2022-09-06T12:25:17.718Z,29.40
2022-09-06T12:29:25.466Z,29.50
2022-09-06T12:33:30.930Z,29.60
2022-09-06T12:37:35.178Z,29.70
2022-09-06T12:41:43.360Z,29.70
2022-09-06T12:45:48.919Z,29.80
2022-09-06T12:50:07.591Z,29.80
2022-09-06T12:54:19.444Z,29.90
2022-09-06T12:58:28.556Z,29.80
2022-09-06T13:02:37.403Z,29.80
2022-09-06T13:06:42.333Z,29.80
2022-09-06T13:10:46.230Z,29.70
2022-09-06T13:14:53.156Z,29.60
2022-09-06T13:19:11.554Z,29.50
2022-09-06T13:23:21.194Z,29.30
2022-09-06T13:27:25.010Z,29.20
2022-09-06T13:31:29.464Z,29.10
2022-09-06T13:35:35.508Z,29.00
2022-09-06T13:39:39.154Z,28.90
2022-09-06T13:43:43.692Z,28.80
2022-09-06T13:47:46.542Z,28.80
2022-09-06T13:51:50.712Z,28.80
2022-09-06T13:55:53.880Z,28.80
2022-09-06T13:59:56.735Z,28.80
2022-09-06T14:04:00.544Z,28.80
2022-09-06T14:08:04.810Z,28.80
2022-09-06T14:12:07.853Z,28.80
2022-09-06T14:16:11.133Z,28.90
2022-09-06T14:20:13.990Z,28.90
2022-09-06T14:24:18.164Z,29.00
2022-09-06T14:28:21.445Z,29.10
2022-09-06T14:32:26.060Z,29.10
2022-09-06T14:36:30.162Z,29.20
2022-09-06T14:40:36.668Z,29.20
2022-09-06T14:44:39.568Z,29.30
2022-09-06T14:48:43.265Z,29.40
2022-09-06T14:52:46.312Z,29.50
2022-09-06T14:56:50.650Z,29.50
2022-09-06T15:00:53.513Z,29.60
2022-09-06T15:04:57.038Z,29.60
2022-09-06T15:09:00.061Z,29.70
2022-09-06T15:13:04.263Z,29.70
2022-09-06T15:17:08.959Z,29.80
2022-09-06T15:21:11.921Z,29.90
2022-09-06T15:25:14.852Z,30.00
2022-09-06T15:29:20.381Z,30.10
2022-09-06T15:33:23.235Z,30.40
2022-09-06T15:37:26.128Z,30.60
2022-09-06T15:41:29.660Z,30.90
2022-09-06T15:45:35.347Z,31.10
2022-09-06T15:49:38.224Z,31.40
2022-09-06T15:53:41.212Z,31.80
2022-09-06T15:57:44.024Z,32.10
2022-09-06T16:01:48.264Z,32.30
2022-09-06T16:10:13.940Z,32.60
2022-09-06T16:14:16.914Z,32.70
2022-09-06T16:18:21.065Z,32.70
2022-09-06T16:22:23.914Z,32.60
2022-09-06T16:26:28.118Z,32.40
2022-09-06T16:30:30.990Z,32.10
2022-09-06T16:34:35.198Z,32.00
2022-09-06T16:38:38.397Z,31.70
2022-09-06T16:42:41.305Z,31.60
2022-09-06T16:46:44.460Z,31.40
2022-09-06T16:50:49.731Z,31.10
2022-09-06T16:54:52.592Z,30.80
2022-09-06T16:58:56.622Z,30.50
2022-09-06T17:02:59.915Z,30.20
2022-09-06T17:07:04.109Z,29.90
2022-09-06T17:11:08.676Z,29.60
2022-09-06T17:15:12.042Z,29.30
2022-09-06T17:19:14.959Z,29.00
2022-09-06T17:23:19.801Z,28.70
2022-09-06T17:27:23.006Z,28.40
2022-09-06T17:31:26.626Z,28.10
2022-09-06T17:35:29.608Z,27.90
2022-09-06T17:39:33.807Z,27.70
2022-09-06T17:43:36.783Z,27.50
2022-09-06T17:47:39.756Z,27.30
2022-09-06T17:51:42.942Z,26.90
2022-09-06T17:55:47.136Z,26.80
2022-09-06T17:59:49.930Z,26.60
2022-09-06T18:03:53.261Z,26.50
2022-09-06T18:07:56.079Z,26.20
2022-09-06T18:12:00.480Z,26.10
2022-09-06T18:16:03.809Z,25.90
2022-09-06T18:20:07.402Z,25.70
2022-09-06T18:24:10.915Z,25.50
2022-09-06T18:28:15.120Z,25.40
2022-09-06T18:32:17.906Z,25.20
2022-09-06T18:36:21.085Z,25.10
2022-09-06T18:40:23.886Z,24.90
2022-09-06T18:44:31.897Z,24.80
2022-09-06T18:48:36.526Z,24.60
2022-09-06T18:52:39.420Z,24.50
2022-09-06T18:56:42.260Z,24.30
2022-09-06T19:00:46.547Z,24.10
2022-09-06T19:04:49.427Z,24.00
2022-09-06T19:08:53.890Z,23.90
2022-09-06T19:12:57.023Z,23.70
2022-09-06T19:17:01.251Z,23.60
2022-09-06T19:21:05.650Z,23.50
2022-09-06T19:25:10.288Z,23.40
2022-09-06T19:29:14.288Z,23.30
2022-09-06T19:33:18.496Z,23.10
2022-09-06T19:37:23.848Z,23.00
2022-09-06T19:41:26.888Z,22.90
2022-09-06T19:45:29.801Z,22.80
2022-09-06T19:49:33.938Z,22.70
2022-09-06T19:53:37.702Z,22.60
2022-09-06T19:57:41.037Z,22.50
2022-09-06T20:01:45.249Z,22.40
2022-09-06T20:05:49.529Z,22.30
2022-09-06T20:09:52.727Z,22.30
2022-09-06T20:13:55.947Z,22.10
2022-09-06T20:17:58.748Z,22.10
2022-09-06T20:22:03.067Z,22.00
2022-09-06T20:26:07.072Z,21.90
2022-09-06T20:30:10.278Z,21.90
2022-09-06T20:34:15.928Z,21.80
2022-09-06T20:38:20.096Z,21.80
2022-09-06T20:42:22.914Z,21.70
2022-09-06T20:46:26.844Z,21.70
2022-09-06T20:50:29.673Z,21.70
2022-09-06T20:54:33.980Z,21.60
2022-09-06T20:58:37.853Z,21.50
2022-09-06T21:02:40.656Z,21.50
2022-09-06T21:06:43.671Z,21.40
2022-09-06T21:10:47.837Z,21.40
2022-09-06T21:14:50.636Z,21.40
2022-09-06T21:18:53.990Z,21.30
2022-09-06T21:22:56.773Z,21.30
2022-09-06T21:27:00.911Z,21.20
2022-09-06T21:31:05.380Z,21.20
2022-09-06T21:35:08.746Z,21.20
2022-09-06T21:39:12.306Z,21.20
2022-09-06T21:43:16.556Z,21.20
2022-09-06T21:47:19.428Z,21.20
2022-09-06T21:51:23.174Z,21.10
2022-09-06T21:55:25.966Z,21.10
2022-09-06T21:59:30.258Z,21.10
2022-09-06T22:03:35.404Z,21.10
2022-09-06T22:07:38.312Z,21.10
2022-09-06T22:11:41.756Z,21.10
2022-09-06T22:15:46.456Z,21.00
2022-09-06T22:19:49.310Z,21.00
2022-09-06T22:23:52.594Z,21.00
2022-09-06T22:27:55.583Z,21.00
2022-09-06T22:31:59.814Z,20.90
2022-09-06T22:36:02.864Z,20.90
2022-09-06T22:40:05.995Z,20.90
2022-09-06T22:44:08.984Z,20.90
2022-09-06T22:48:13.932Z,20.90
2022-09-06T22:52:16.727Z,20.90
2022-09-06T22:56:19.798Z,20.80
2022-09-06T23:00:22.611Z,20.80
2022-09-06T23:04:26.939Z,20.80
2022-09-06T23:08:29.853Z,20.80
2022-09-06T23:12:32.764Z,20.70
2022-09-06T23:16:35.725Z,20.70
2022-09-06T23:20:39.920Z,20.60
2022-09-06T23:24:42.756Z,20.60
2022-09-06T23:28:45.927Z,20.60
2022-09-06T23:32:48.755Z,20.50
2022-09-06T23:36:54.076Z,20.50
2022-09-06T23:40:56.884Z,20.50
2022-09-06T23:44:59.683Z,20.50
2022-09-06T23:49:02.481Z,20.40
2022-09-06T23:53:06.632Z,20.40
2022-09-06T23:57:09.424Z,20.40
